Time;durP1;ratioP1;P1;durP2;ratioP2;P2;SDS_P1;SDS_P2;PMS_P1;PMS_P2;Temp;Humidity;BMP_temperature;BMP_pressure;BME280_temperature;BME280_humidity;BME280_pressure;Samples;Min_cycle;Max_cycle;Signal;HPM_P1;HPM_P2
2021/11/20 11:00:30;;;;;;;20.98;7.45;;;;;;;21.92;52.99;99721.63;5150710;27;20127;-52
2021/11/20 11:03:38;;;;;;;20.88;8.02;;;;;;;21.94;52.97;99733.03;5139928;27;20607;-52
2021/11/20 11:06:41;;;;;;;18.23;7.50;;;;;;;21.99;52.93;99723.94;5134423;27;20047;-57
2021/11/20 11:09:21;;;;;;;17.55;8.35;;;;;;;22.03;52.87;99727.31;5115744;27;20039;-56
2021/11/20 11:11:51;;;;;;;20.42;8.70;;;;;;;22.08;52.90;99733.31;5129657;27;20097;-57
2021/11/20 11:14:45;;;;;;;17.55;8.25;;;;;;;22.14;53.09;99730.34;5129648;27;20069;-54
2021/11/20 11:17:16;;;;;;;16.25;8.35;;;;;;;22.25;52.51;99729.03;5122319;28;20100;-55
2021/11/20 11:19:46;;;;;;;18.05;7.97;;;;;;;22.30;52.35;99727.03;5129954;27;20051;-55
2021/11/20 11:22:20;;;;;;;16.75;8.35;;;;;;;22.35;52.27;99727.66;5123860;28;20079;-57
2021/11/20 11:25:09;;;;;;;17.00;7.93;;;;;;;22.40;52.23;99723.00;5123477;28;20044;-56
2021/11/20 11:27:48;;;;;;;22.60;9.00;;;;;;;22.47;52.15;99720.91;5129304;28;20126;-54
2021/11/20 11:30:21;;;;;;;29.60;9.32;;;;;;;22.47;52.17;99716.47;5129542;28;20047;-54
2021/11/20 16:40:47;;;;;;;19.33;9.00;;;;;;;21.52;53.60;99628.84;5145011;27;20181;-58
2021/11/20 16:43:14;;;;;;;16.58;8.65;;;;;;;21.57;53.52;99623.31;5112511;27;20047;-58
2021/11/20 16:45:43;;;;;;;18.63;9.00;;;;;;;21.64;53.46;99632.72;5109328;28;20040;-58
2021/11/20 16:48:10;;;;;;;17.10;8.82;;;;;;;21.71;53.29;99634.13;5109440;28;20071;-60
2021/11/20 16:50:58;;;;;;;19.67;9.18;;;;;;;21.78;53.42;99638.25;5109012;28;20052;-58
2021/11/20 16:53:24;;;;;;;20.05;8.75;;;;;;;21.89;52.90;99636.88;5104681;28;20550;-57
2021/11/20 16:55:52;;;;;;;16.58;8.68;;;;;;;21.96;52.82;99631.22;5122396;27;20094;-55
2021/11/20 16:58:20;;;;;;;15.63;9.15;;;;;;;22.02;52.56;99623.00;5104043;28;20047;-55
2021/11/20 17:00:46;;;;;;;20.15;8.98;;;;;;;22.10;52.46;99619.09;5100707;28;20501;-56
2021/11/20 17:03:13;;;;;;;18.23;8.30;;;;;;;22.15;52.24;99623.25;5103322;28;20043;-55
2021/11/20 17:05:40;;;;;;;19.27;8.65;;;;;;;22.21;52.27;99632.72;5103678;28;20047;-58
2021/11/20 17:08:07;;;;;;;15.32;8.50;;;;;;;22.26;52.00;99628.09;5108864;28;20044;-59
2021/11/20 17:10:34;;;;;;;17.27;9.23;;;;;;;22.32;51.93;99638.41;5112830;28;20056;-58
2021/11/20 17:13:02;;;;;;;21.75;9.20;;;;;;;22.40;51.73;99632.75;5108923;28;20043;-56
2021/11/20 17:15:28;;;;;;;16.77;8.55;;;;;;;22.45;51.71;99616.56;5108671;28;20040;-59
2021/11/20 17:17:55;;;;;;;18.95;9.55;;;;;;;22.49;51.40;99623.44;5109019;28;20124;-59
2021/11/20 17:20:22;;;;;;;20.75;9.02;;;;;;;22.52;51.33;99629.47;5112001;28;20070;-60
2021/11/20 17:22:50;;;;;;;18.98;8.90;;;;;;;22.55;51.24;99624.03;5109131;28;20097;-59
2021/11/20 17:25:17;;;;;;;16.52;8.55;;;;;;;22.59;51.23;99622.09;5108466;28;20040;-57
2021/11/20 17:27:47;;;;;;;19.00;9.35;;;;;;;22.62;51.03;99621.91;5112073;28;20093;-57
2021/11/20 17:30:15;;;;;;;16.33;9.02;;;;;;;22.66;51.05;99627.94;5112265;28;20086;-56
2021/11/20 17:32:42;;;;;;;17.77;9.23;;;;;;;22.67;51.00;99625.22;5108542;28;20051;-57
2021/11/20 17:35:09;;;;;;;19.83;9.52;;;;;;;22.70;50.80;99619.75;5109643;28;20043;-56
2021/11/20 17:37:36;;;;;;;17.17;8.88;;;;;;;22.74;50.98;99607.16;5110439;27;20395;-50
2021/11/20 17:40:02;;;;;;;22.98;9.07;;;;;;;22.77;50.92;99607.03;5108246;28;20393;-51
2021/11/20 17:42:29;;;;;;;19.95;9.50;;;;;;;22.76;50.79;99606.16;5108539;28;20101;-50
2021/11/20 17:44:56;;;;;;;18.67;8.88;;;;;;;22.76;50.69;99605.28;5112061;28;20512;-50
2021/11/20 17:47:25;;;;;;;20.45;9.30;;;;;;;22.76;50.76;99605.28;5107998;28;20488;-50
2021/11/20 17:49:52;;;;;;;23.05;8.82;;;;;;;22.78;50.95;99606.09;5107933;28;20117;-50
2021/11/20 17:52:19;;;;;;;23.05;9.13;;;;;;;22.80;50.87;99602.41;5096918;28;20048;-51
2021/11/20 17:54:46;;;;;;;15.88;9.38;;;;;;;22.80;50.51;99596.25;5113384;28;20097;-50
2021/11/20 17:57:12;;;;;;;29.75;10.73;;;;;;;22.84;50.29;99595.16;5115196;27;20040;-58
2021/11/20 17:59:39;;;;;;;20.83;9.70;;;;;;;22.83;50.19;99593.44;5105525;28;20562;-56
2021/11/20 18:02:06;;;;;;;19.35;9.15;;;;;;;22.83;50.16;99592.56;5092918;28;20495;-54
2021/11/20 18:04:35;;;;;;;16.60;8.93;;;;;;;22.83;50.26;99588.09;5093151;28;20555;-53
2021/11/20 18:07:02;;;;;;;23.13;9.70;;;;;;;22.82;50.13;99586.41;5091758;28;20056;-56
2021/11/20 18:09:29;;;;;;;21.63;9.82;;;;;;;22.83;50.15;99587.25;5092385;28;20036;-58
2021/11/20 18:11:57;;;;;;;18.88;9.07;;;;;;;22.83;50.30;99581.94;5089450;28;20052;-57
2021/11/20 18:14:24;;;;;;;20.02;9.73;;;;;;;22.84;50.31;99573.91;5093120;28;20118;-58
2021/11/20 18:16:51;;;;;;;19.73;9.10;;;;;;;22.85;50.32;99580.91;5090576;28;20044;-55
2021/11/20 18:19:18;;;;;;;19.30;9.15;;;;;;;22.89;50.30;99577.16;5092463;28;20044;-55
2021/11/20 18:21:46;;;;;;;20.45;9.15;;;;;;;22.95;50.47;99571.56;5092487;28;20040;-50
2021/11/20 18:24:12;;;;;;;18.02;9.18;;;;;;;22.93;50.33;99573.41;5093239;28;20042;-51
2021/11/20 18:26:39;;;;;;;20.15;9.43;;;;;;;22.95;50.24;99571.56;5093637;28;20051;-53
2021/11/20 18:29:06;;;;;;;21.95;9.77;;;;;;;22.91;50.56;99582.41;5093735;28;20078;-51
2021/11/20 18:31:34;;;;;;;19.02;9.27;;;;;;;22.92;50.38;99573.50;5093483;28;20101;-52
2021/11/20 18:34:01;;;;;;;17.75;8.80;;;;;;;22.93;50.27;99573.41;5080617;28;20044;-53
2021/11/20 18:36:27;;;;;;;25.20;9.63;;;;;;;23.02;50.41;99576.56;5093388;28;20534;-54
2021/11/20 18:38:56;;;;;;;17.48;8.60;;;;;;;23.02;49.98;99571.25;5092867;28;20386;-51
2021/11/20 18:41:23;;;;;;;16.60;9.07;;;;;;;22.99;49.95;99570.47;5090245;28;20101;-51
2021/11/20 18:43:50;;;;;;;18.30;8.98;;;;;;;22.99;50.13;99565.16;5080215;28;20063;-52
2021/11/20 18:46:17;;;;;;;17.30;9.10;;;;;;;22.99;49.88;99562.50;5093659;28;20048;-53
2021/11/20 18:48:43;;;;;;;17.67;8.55;;;;;;;23.00;50.06;99558.03;5092962;28;20101;-52
2021/11/20 18:51:10;;;;;;;16.60;9.50;;;;;;;22.99;49.83;99550.97;5090212;28;20105;-53
2021/11/20 18:53:37;;;;;;;20.13;8.75;;;;;;;22.98;49.77;99558.09;5090180;28;20109;-52
2021/11/20 18:56:06;;;;;;;17.00;9.35;;;;;;;22.99;49.87;99554.50;5093112;28;20117;-51
2021/11/20 18:58:32;;;;;;;18.75;8.85;;;;;;;22.98;50.05;99544.81;5093404;28;20390;-52
2021/11/20 19:00:59;;;;;;;18.08;8.82;;;;;;;22.98;49.98;99544.81;5090189;28;20044;-51
2021/11/20 19:03:26;;;;;;;22.20;8.82;;;;;;;23.02;50.17;99545.50;5093331;28;20172;-52
2021/11/20 19:05:53;;;;;;;16.65;8.63;;;;;;;22.98;50.11;99547.47;5092713;28;20052;-51
2021/11/20 19:08:19;;;;;;;22.33;8.98;;;;;;;23.00;50.16;99542.94;5093176;28;20040;-56
2021/11/20 19:10:47;;;;;;;20.15;8.95;;;;;;;22.99;50.04;99546.53;5092548;28;20048;-56
2021/11/20 19:13:15;;;;;;;18.33;8.82;;;;;;;23.00;50.01;99544.72;5092947;28;20131;-55
2021/11/20 19:15:42;;;;;;;16.67;8.63;;;;;;;22.98;50.03;99542.16;5090471;28;20093;-55
2021/11/20 19:18:08;;;;;;;15.52;8.57;;;;;;;22.98;50.10;99544.81;5092708;28;20097;-53
2021/11/20 19:20:35;;;;;;;16.92;8.50;;;;;;;22.99;50.04;99537.69;5093143;28;20048;-57
2021/11/20 19:23:02;;;;;;;18.98;8.88;;;;;;;23.00;50.15;99540.28;5093117;28;20098;-53
2021/11/20 19:25:29;;;;;;;18.67;8.80;;;;;;;22.98;50.28;99534.19;5092417;28;20093;-52
2021/11/20 19:27:55;;;;;;;18.42;8.95;;;;;;;22.97;50.19;99532.47;5092998;28;20094;-52
2021/11/20 19:30:24;;;;;;;22.05;8.80;;;;;;;23.02;50.41;99531.38;5093040;28;20109;-51
2021/11/20 19:32:50;;;;;;;29.83;9.15;;;;;;;22.99;50.36;99535.91;5092986;28;20048;-50
2021/11/20 19:35:17;;;;;;;30.15;9.48;;;;;;;22.97;50.31;99521.84;5092550;28;20059;-51
2021/11/20 19:37:46;;;;;;;17.08;8.25;;;;;;;23.01;50.55;99522.53;5092292;28;20048;-52
2021/11/20 19:40:15;;;;;;;20.90;8.60;;;;;;;23.02;50.14;99518.09;5091839;28;20055;-55
2021/11/20 19:42:42;;;;;;;17.65;8.70;;;;;;;23.03;50.07;99527.78;5092838;28;20059;-56
2021/11/20 19:45:09;;;;;;;16.90;8.43;;;;;;;23.03;50.15;99530.44;5099431;28;20473;-53
2021/11/20 19:47:39;;;;;;;16.65;8.30;;;;;;;23.02;50.14;99534.03;5092176;28;20638;-54
2021/11/20 19:50:07;;;;;;;17.13;8.65;;;;;;;23.00;50.17;99529.66;5092834;28;20040;-57
2021/11/20 19:52:34;;;;;;;16.50;8.10;;;;;;;23.02;50.20;99521.59;5093293;28;20044;-55
2021/11/20 19:55:01;;;;;;;15.57;8.05;;;;;;;23.03;49.99;99525.13;5112754;28;20492;-56
2021/11/20 19:57:28;;;;;;;17.02;8.55;;;;;;;23.04;50.02;99521.56;5099509;28;20048;-54
2021/11/20 19:59:54;;;;;;;17.17;8.77;;;;;;;23.04;50.14;99521.56;5111515;28;20516;-54
2021/11/20 20:02:21;;;;;;;15.98;8.68;;;;;;;23.03;49.74;99525.13;5112758;28;20176;-53
2021/11/20 20:04:49;;;;;;;14.75;8.23;;;;;;;23.04;50.07;99529.53;5092238;28;20050;-53
2021/11/20 20:07:16;;;;;;;16.35;8.48;;;;;;;23.06;50.07;99530.31;5079068;28;20576;-52
2021/11/20 20:09:43;;;;;;;14.57;8.70;;;;;;;23.05;50.04;99528.56;5085626;28;20047;-52
2021/11/20 20:12:10;;;;;;;13.85;7.95;;;;;;;23.04;50.04;99529.53;5084365;28;20124;-52
2021/11/20 20:14:37;;;;;;;19.38;8.63;;;;;;;23.04;50.18;99527.72;5086160;28;20052;-53
2021/11/20 20:17:04;;;;;;;16.73;8.52;;;;;;;23.04;50.03;99530.38;5085221;28;20055;-53
2021/11/20 20:19:35;;;;;;;15.52;8.63;;;;;;;23.04;49.89;99537.50;5081610;28;20102;-52
2021/11/20 20:22:04;;;;;;;17.42;8.93;;;;;;;23.05;49.97;99542.75;5084134;28;20051;-52
2021/11/20 20:24:30;;;;;;;16.13;8.45;;;;;;;23.09;49.83;99532.78;5083226;28;20040;-50
2021/11/20 20:26:57;;;;;;;14.82;8.32;;;;;;;23.11;49.92;99528.25;5088758;28;20375;-53
2021/11/20 20:29:24;;;;;;;15.05;8.00;;;;;;;23.09;49.77;99525.69;5088834;28;20040;-54
2021/11/20 20:31:51;;;;;;;14.32;8.23;;;;;;;23.09;49.87;99527.47;5084228;28;20043;-54
2021/11/20 20:34:17;;;;;;;15.43;8.55;;;;;;;23.08;49.90;99523.97;5086019;28;20048;-54
2021/11/20 20:36:44;;;;;;;25.88;8.45;;;;;;;23.10;49.89;99515.91;5091500;28;20044;-55
2021/11/20 20:39:12;;;;;;;17.73;8.50;;;;;;;23.10;49.77;99524.72;5090303;28;20052;-54
2021/11/20 20:41:39;;;;;;;17.70;7.80;;;;;;;23.10;49.84;99521.22;5101581;28;20102;-54
2021/11/20 20:44:06;;;;;;;15.48;8.48;;;;;;;23.10;49.87;99524.72;5091923;28;20122;-52
2021/11/20 20:46:33;;;;;;;22.63;8.68;;;;;;;23.12;50.11;99524.66;5091120;28;20044;-51
2021/11/20 20:49:00;;;;;;;17.60;7.78;;;;;;;23.11;49.81;99513.19;5091642;28;20040;-51
2021/11/20 20:51:26;;;;;;;16.10;8.25;;;;;;;23.10;49.30;99505.28;5091880;28;20040;-54
2021/11/20 20:53:53;;;;;;;16.23;8.63;;;;;;;23.08;49.72;99502.69;5103906;28;20047;-54
2021/11/20 20:56:21;;;;;;;16.13;8.93;;;;;;;23.08;49.72;99494.72;5100315;28;20048;-52
2021/11/20 20:58:51;;;;;;;16.27;8.50;;;;;;;23.07;49.89;99497.47;5089926;28;20052;-52
2021/11/20 21:01:18;;;;;;;14.75;8.02;;;;;;;23.06;49.88;99493.09;5091253;28;20135;-57
2021/11/20 21:03:45;;;;;;;14.65;8.18;;;;;;;23.04;49.98;99482.53;5093552;28;20059;-54
2021/11/20 21:06:13;;;;;;;17.30;8.45;;;;;;;23.05;49.88;99486.06;5091990;28;20140;-55
2021/11/20 21:08:39;;;;;;;15.77;8.15;;;;;;;23.05;49.88;99481.63;5092306;28;20044;-54
2021/11/20 21:11:06;;;;;;;23.20;8.68;;;;;;;23.07;49.88;99479.75;5090400;28;20503;-53
2021/11/20 21:13:34;;;;;;;16.58;8.32;;;;;;;23.05;49.91;99470.09;5090406;28;20048;-55
2021/11/20 21:16:02;;;;;;;16.80;8.10;;;;;;;23.03;49.99;99472.88;5087801;28;20048;-54
2021/11/20 21:18:35;;;;;;;16.38;8.35;;;;;;;23.05;49.96;99467.44;5090338;28;20052;-54
2021/11/20 21:23:46;;;;;;;14.05;7.72;;;;;;;23.02;49.98;99463.13;5086454;28;20051;-54
2021/11/20 21:26:13;;;;;;;14.65;8.57;;;;;;;23.02;49.99;99459.63;5092589;28;20055;-54
2021/11/20 21:28:41;;;;;;;14.18;7.97;;;;;;;23.03;49.93;99448.06;5095303;28;20044;-53
2021/11/20 21:31:08;;;;;;;15.20;7.90;;;;;;;23.02;50.25;99460.47;5094867;28;20485;-54
2021/11/20 21:33:35;;;;;;;13.27;7.63;;;;;;;23.03;49.96;99456.03;5095020;28;20040;-54
2021/11/20 21:36:02;;;;;;;15.70;8.35;;;;;;;23.02;49.85;99449.84;5094710;28;20048;-54
2021/11/20 21:38:29;;;;;;;14.98;8.35;;;;;;;23.02;49.96;99447.19;5103790;28;20097;-54
2021/11/20 21:40:55;;;;;;;13.65;7.70;;;;;;;23.02;49.94;99449.84;5094807;28;20550;-54
2021/11/20 21:43:22;;;;;;;14.57;8.00;;;;;;;23.00;50.03;99443.75;5095142;28;20105;-54
2021/11/20 21:45:50;;;;;;;13.43;7.90;;;;;;;22.99;50.06;99444.69;5094527;28;20093;-54
2021/11/20 21:48:17;;;;;;;14.20;7.95;;;;;;;22.98;49.93;99433.22;5095135;28;20040;-54
2021/11/20 21:50:44;;;;;;;15.18;7.88;;;;;;;22.99;49.95;99439.38;5094534;28;20494;-54
2021/11/20 21:53:11;;;;;;;14.02;7.90;;;;;;;22.97;49.94;99441.25;5100510;28;20486;-54
